createdAt,value
2024-02-23T00:01:15.262Z,1.06
2024-02-23T00:03:42.294Z,0.81
2024-02-23T00:06:11.965Z,1.03
2024-02-23T00:08:39.256Z,1.04
2024-02-23T00:11:06.621Z,0.89
2024-02-23T00:13:33.687Z,0.95
2024-02-23T00:16:00.731Z,1.04
2024-02-23T00:18:28.107Z,1.13
2024-02-23T00:20:55.055Z,1.13
2024-02-23T00:23:24.675Z,1.03
2024-02-23T00:25:51.924Z,1.29
2024-02-23T00:28:18.885Z,1.09
2024-02-23T00:30:46.038Z,1.27
2024-02-23T00:33:13.105Z,1.25
2024-02-23T00:35:40.231Z,1.19
2024-02-23T00:38:08.059Z,1.26
2024-02-23T00:40:37.668Z,1.43
2024-02-23T00:43:05.075Z,1.35
2024-02-23T00:45:32.098Z,1.63
2024-02-23T00:47:59.096Z,1.72
2024-02-23T00:50:26.348Z,1.45
2024-02-23T00:52:53.423Z,1.24
2024-02-23T00:55:20.714Z,1.49
2024-02-23T00:57:50.875Z,1.31
2024-02-23T01:00:18.585Z,1.47
2024-02-23T01:02:45.621Z,1.19
2024-02-23T01:05:12.623Z,1.23
2024-02-23T01:07:39.612Z,1.30
2024-02-23T01:10:08.043Z,1.34
2024-02-23T01:12:35.069Z,1.48
2024-02-23T01:15:06.415Z,1.46
2024-02-23T01:17:33.709Z,1.90
2024-02-23T01:20:01.166Z,1.29
2024-02-23T01:22:28.486Z,1.58
2024-02-23T01:24:55.403Z,1.50
2024-02-23T01:27:22.502Z,1.40
2024-02-23T01:29:49.466Z,1.48
2024-02-23T01:32:19.085Z,1.63
2024-02-23T01:34:46.224Z,1.64
2024-02-23T01:37:13.251Z,1.36
2024-02-23T01:39:40.197Z,1.35
2024-02-23T01:42:07.382Z,1.78
2024-02-23T01:44:35.573Z,1.45
2024-02-23T01:47:03.151Z,1.36
2024-02-23T01:49:35.028Z,1.07
2024-02-23T01:52:04.386Z,1.18
2024-02-23T01:54:32.150Z,1.19
2024-02-23T01:57:08.304Z,1.02
2024-02-23T01:59:49.648Z,1.50
2024-02-23T02:02:17.537Z,1.84
2024-02-23T02:04:47.096Z,1.24
2024-02-23T02:07:15.571Z,1.28
2024-02-23T02:09:44.663Z,1.17
2024-02-23T02:12:12.866Z,1.23
2024-02-23T02:14:50.316Z,1.45
2024-02-23T02:17:17.302Z,1.34
2024-02-23T02:19:49.977Z,1.16
2024-02-23T02:22:17.025Z,1.20
2024-02-23T02:24:43.978Z,1.30
2024-02-23T02:27:11.021Z,1.13
2024-02-23T02:29:38.166Z,0.96
2024-02-23T02:32:05.986Z,1.25
2024-02-23T02:34:34.974Z,0.81
2024-02-23T02:37:04.544Z,1.10
2024-02-23T02:39:31.741Z,1.01
2024-02-23T02:41:58.645Z,0.87
2024-02-23T02:44:28.716Z,1.25
2024-02-23T02:46:55.716Z,1.00
2024-02-23T02:49:22.770Z,0.75
2024-02-23T02:51:52.016Z,0.92
2024-02-23T02:54:21.629Z,0.97
2024-02-23T02:56:49.689Z,0.83
2024-02-23T02:59:19.722Z,0.85
2024-02-23T03:01:49.215Z,1.04
2024-02-23T03:04:18.142Z,0.99
2024-02-23T03:06:46.567Z,0.98
2024-02-23T03:09:28.411Z,1.06
2024-02-23T03:11:56.452Z,1.09
2024-02-23T03:14:23.466Z,1.16
2024-02-23T03:16:50.707Z,0.92
2024-02-23T03:19:17.913Z,1.07
2024-02-23T03:21:44.859Z,1.09
2024-02-23T03:24:11.787Z,1.10
2024-02-23T03:26:42.153Z,0.95
2024-02-23T03:29:09.267Z,1.08
2024-02-23T03:31:36.707Z,1.15
2024-02-23T03:34:03.866Z,1.15
2024-02-23T03:36:33.041Z,1.32
2024-02-23T03:38:59.955Z,1.12
2024-02-23T03:41:27.055Z,1.09
2024-02-23T03:43:56.686Z,1.20
2024-02-23T03:46:23.643Z,0.87
2024-02-23T03:48:50.689Z,1.40
2024-02-23T03:51:19.620Z,1.31
2024-02-23T03:53:47.091Z,1.25
2024-02-23T03:56:14.187Z,1.11
2024-02-23T03:58:41.301Z,1.05
2024-02-23T04:01:12.322Z,1.18
2024-02-23T04:03:39.597Z,1.12
2024-02-23T04:06:06.737Z,1.22
2024-02-23T04:08:34.002Z,1.27
2024-02-23T04:11:01.311Z,1.13
2024-02-23T04:13:29.519Z,0.95
2024-02-23T04:15:56.731Z,1.42
2024-02-23T04:18:26.375Z,1.29
2024-02-23T04:20:53.588Z,0.94
2024-02-23T04:23:20.809Z,1.47
2024-02-23T04:25:47.977Z,1.16
2024-02-23T04:28:15.030Z,1.39
2024-02-23T04:30:41.972Z,1.29
2024-02-23T04:33:09.021Z,1.01
2024-02-23T04:35:39.428Z,1.06
2024-02-23T04:38:06.465Z,0.98
2024-02-23T04:40:33.496Z,1.27
2024-02-23T04:43:00.581Z,1.38
2024-02-23T04:45:27.519Z,1.39
2024-02-23T04:47:54.488Z,1.50
2024-02-23T04:50:21.787Z,1.26
2024-02-23T04:52:51.388Z,1.10
2024-02-23T04:55:18.356Z,1.43
2024-02-23T04:57:45.326Z,1.43
2024-02-23T05:00:15.594Z,1.53
2024-02-23T05:02:42.567Z,1.26
2024-02-23T05:05:10.453Z,1.37
2024-02-23T05:07:37.441Z,1.38
2024-02-23T05:10:08.004Z,1.33
2024-02-23T05:12:35.568Z,1.45
2024-02-23T05:15:03.972Z,1.21
2024-02-23T05:17:32.511Z,1.32
2024-02-23T05:19:59.868Z,1.16
2024-02-23T05:22:26.814Z,1.14
2024-02-23T05:24:53.854Z,1.24
2024-02-23T05:27:23.482Z,1.14
2024-02-23T05:29:52.082Z,1.18
2024-02-23T05:32:19.094Z,1.17
2024-02-23T05:34:46.053Z,1.19
2024-02-23T05:37:13.016Z,1.21
2024-02-23T05:39:39.927Z,0.96
2024-02-23T05:42:08.653Z,1.13
2024-02-23T05:44:38.193Z,1.08
2024-02-23T05:47:05.261Z,1.00
2024-02-23T05:49:32.279Z,1.12
2024-02-23T05:51:59.338Z,1.31
2024-02-23T05:54:27.941Z,1.14
2024-02-23T05:56:54.954Z,1.12
2024-02-23T05:59:21.956Z,1.14
2024-02-23T06:01:51.666Z,1.07
2024-02-23T06:04:18.684Z,1.37
2024-02-23T06:06:45.952Z,1.27
2024-02-23T06:09:13.067Z,1.38
2024-02-23T06:11:40.195Z,1.44
2024-02-23T06:14:07.255Z,1.42
2024-02-23T06:16:34.208Z,1.40
2024-02-23T06:19:03.882Z,1.10
2024-02-23T06:21:30.851Z,1.29
2024-02-23T06:24:01.137Z,1.32
2024-02-23T06:26:28.063Z,1.27
2024-02-23T06:28:55.179Z,1.43
2024-02-23T06:31:22.314Z,1.44
2024-02-23T06:33:49.359Z,1.92
2024-02-23T06:36:19.172Z,1.10
2024-02-23T06:38:46.544Z,1.40
2024-02-23T06:41:13.642Z,1.87
2024-02-23T06:43:40.620Z,1.46
2024-02-23T06:46:09.259Z,1.17
2024-02-23T06:48:37.145Z,0.98
2024-02-23T06:51:04.940Z,1.01
2024-02-23T06:53:34.577Z,1.28
2024-02-23T06:56:01.848Z,1.93
2024-02-23T06:58:29.113Z,1.35
2024-02-23T07:00:56.196Z,1.56
2024-02-23T07:03:24.130Z,1.37
2024-02-23T07:05:51.265Z,1.33
2024-02-23T07:08:18.527Z,1.50
2024-02-23T07:10:48.504Z,1.50
2024-02-23T07:13:15.472Z,1.38
2024-02-23T07:15:42.527Z,1.44
2024-02-23T07:18:09.745Z,1.61
2024-02-23T07:20:37.379Z,1.51
2024-02-23T07:23:05.284Z,1.29
2024-02-23T07:25:32.570Z,1.27
2024-02-23T07:28:02.273Z,1.88
2024-02-23T07:30:29.296Z,2.74
2024-02-23T07:32:56.396Z,1.46
2024-02-23T07:35:25.877Z,1.41
2024-02-23T07:37:53.433Z,1.56
2024-02-23T07:40:22.529Z,1.51
2024-02-23T07:42:49.946Z,1.62
2024-02-23T07:45:19.506Z,1.67
2024-02-23T07:47:47.258Z,1.42
2024-02-23T07:50:14.737Z,1.93
2024-02-23T07:52:41.804Z,1.46
2024-02-23T07:55:09.933Z,1.33
2024-02-23T07:57:37.216Z,2.31
2024-02-23T08:00:07.612Z,1.53
2024-02-23T08:02:37.397Z,1.34
2024-02-23T08:05:04.856Z,1.36
2024-02-23T08:07:34.266Z,1.55
2024-02-23T08:10:02.976Z,1.61
2024-02-23T08:12:30.110Z,1.30
2024-02-23T08:14:58.470Z,1.52
2024-02-23T08:17:25.545Z,1.39
2024-02-23T08:19:55.551Z,1.34
2024-02-23T08:22:22.517Z,1.38
2024-02-23T08:24:49.459Z,1.36
2024-02-23T08:27:17.701Z,1.31
2024-02-23T08:29:44.710Z,1.53
2024-02-23T08:32:15.184Z,2.38
2024-02-23T08:34:42.307Z,2.55
2024-02-23T08:37:14.998Z,1.34
2024-02-23T08:39:42.067Z,1.43
2024-02-23T08:42:10.245Z,1.47
2024-02-23T08:44:38.653Z,1.78
2024-02-23T08:47:07.867Z,1.35
2024-02-23T08:49:34.904Z,1.65
2024-02-23T08:52:02.063Z,1.56
2024-02-23T08:54:31.776Z,1.62
2024-02-23T08:56:58.695Z,1.61
2024-02-23T08:59:25.699Z,2.10
2024-02-23T09:01:53.407Z,2.73
2024-02-23T09:04:20.406Z,1.52
2024-02-23T09:06:48.936Z,1.32
2024-02-23T09:09:15.941Z,1.60
2024-02-23T09:11:47.007Z,1.47
2024-02-23T09:14:14.108Z,1.68
2024-02-23T09:16:41.094Z,1.83
2024-02-23T09:19:08.410Z,1.79
2024-02-23T09:21:40.491Z,1.89
2024-02-23T09:24:07.845Z,2.59
2024-02-23T09:26:35.158Z,2.15
2024-02-23T09:29:04.864Z,1.79
2024-02-23T09:31:32.156Z,1.58
2024-02-23T09:33:59.358Z,1.83
2024-02-23T09:36:26.516Z,1.80
2024-02-23T09:38:53.876Z,1.94
2024-02-23T09:41:22.307Z,1.97
2024-02-23T09:43:50.282Z,2.40
2024-02-23T09:46:21.910Z,1.87
2024-02-23T09:48:51.673Z,1.64
2024-02-23T09:51:24.934Z,1.86
2024-02-23T09:53:52.033Z,2.02
2024-02-23T09:56:22.434Z,2.03
2024-02-23T09:58:51.909Z,2.05
2024-02-23T10:01:29.921Z,1.93
2024-02-23T10:03:58.619Z,1.74
2024-02-23T10:06:26.149Z,2.30
2024-02-23T10:08:53.423Z,1.98
2024-02-23T10:11:21.578Z,2.20
2024-02-23T10:13:48.915Z,1.97
2024-02-23T10:16:17.125Z,2.39
2024-02-23T10:18:48.941Z,1.99
2024-02-23T10:21:16.070Z,1.71
2024-02-23T10:23:43.579Z,1.74
2024-02-23T10:26:10.842Z,1.70
2024-02-23T10:28:38.451Z,1.58
2024-02-23T10:31:06.000Z,1.82
2024-02-23T10:33:33.616Z,1.74
2024-02-23T10:36:08.192Z,1.87
2024-02-23T10:38:39.600Z,1.81
2024-02-23T10:41:07.289Z,2.31
2024-02-23T10:43:42.641Z,2.12
2024-02-23T10:46:12.514Z,2.06
2024-02-23T10:48:40.375Z,1.83
2024-02-23T10:51:14.608Z,1.75
2024-02-23T10:53:46.330Z,1.62
2024-02-23T10:56:13.509Z,1.61
2024-02-23T10:58:40.534Z,2.09
2024-02-23T11:01:11.617Z,1.86
2024-02-23T11:03:42.741Z,1.83
2024-02-23T11:06:13.325Z,1.87
2024-02-23T11:08:40.646Z,1.81
2024-02-23T11:11:12.708Z,1.90
2024-02-23T11:13:41.393Z,1.84
2024-02-23T11:16:10.279Z,1.96
2024-02-23T11:18:40.403Z,1.94
2024-02-23T11:21:15.996Z,1.89
2024-02-23T11:23:44.349Z,2.08
2024-02-23T11:26:12.574Z,2.46
2024-02-23T11:28:49.152Z,2.31
2024-02-23T11:31:19.986Z,1.54
2024-02-23T11:33:50.656Z,1.70
2024-02-23T11:36:30.614Z,1.82
2024-02-23T11:39:00.915Z,1.74
2024-02-23T11:41:29.331Z,2.10
2024-02-23T11:44:00.752Z,2.24
2024-02-23T11:46:27.805Z,1.99
2024-02-23T11:48:55.066Z,1.89
2024-02-23T11:51:25.586Z,1.98
2024-02-23T11:53:54.845Z,1.97
2024-02-23T11:56:21.869Z,1.73
2024-02-23T11:58:48.938Z,1.94
2024-02-23T12:01:27.179Z,2.35
2024-02-23T12:03:54.201Z,2.01
2024-02-23T12:06:21.696Z,1.63
2024-02-23T12:08:51.664Z,1.95
2024-02-23T12:11:19.420Z,1.82
2024-02-23T12:13:49.118Z,2.10
2024-02-23T12:16:16.289Z,1.70
2024-02-23T12:18:43.397Z,2.37
2024-02-23T12:21:11.146Z,2.17
2024-02-23T12:23:42.236Z,1.83
2024-02-23T12:26:16.860Z,1.96
2024-02-23T12:28:45.021Z,1.61
2024-02-23T12:31:12.128Z,1.53
2024-02-23T12:33:40.640Z,1.63
2024-02-23T12:36:09.840Z,1.83
2024-02-23T12:38:37.212Z,1.84
2024-02-23T12:41:05.638Z,3.39
2024-02-23T12:43:44.497Z,2.51
2024-02-23T12:46:12.657Z,2.09
2024-02-23T12:48:39.598Z,1.74
2024-02-23T12:51:06.652Z,1.72
2024-02-23T12:53:35.816Z,2.23
2024-02-23T12:56:05.760Z,1.61
2024-02-23T12:58:36.228Z,1.62
2024-02-23T13:01:04.010Z,1.63
2024-02-23T13:03:31.571Z,1.75
2024-02-23T13:05:59.940Z,1.83
2024-02-23T13:08:27.649Z,1.98
2024-02-23T13:10:55.971Z,1.67
2024-02-23T13:13:24.373Z,2.44
2024-02-23T13:15:55.352Z,1.89
2024-02-23T13:18:22.465Z,1.74
2024-02-23T13:20:49.622Z,1.56
2024-02-23T13:23:17.162Z,1.81
2024-02-23T13:25:47.116Z,2.05
2024-02-23T13:28:14.414Z,1.78
2024-02-23T13:30:41.360Z,1.42
2024-02-23T13:33:17.172Z,1.41
2024-02-23T13:35:44.700Z,1.57
2024-02-23T13:38:11.822Z,1.33
2024-02-23T13:40:47.883Z,1.63
2024-02-23T13:43:14.928Z,1.83
2024-02-23T13:45:54.063Z,2.16
2024-02-23T13:48:24.025Z,1.93
2024-02-23T13:54:05.818Z,1.33
2024-02-23T13:59:22.768Z,1.37
2024-02-23T14:01:50.279Z,1.02
2024-02-23T14:04:20.131Z,1.31
2024-02-23T14:06:47.108Z,1.22
2024-02-23T14:09:14.221Z,2.49
2024-02-23T14:11:41.442Z,1.31
2024-02-23T14:14:08.663Z,1.51
2024-02-23T14:16:35.612Z,1.39
2024-02-23T14:19:02.918Z,1.51
2024-02-23T14:21:32.799Z,1.59
2024-02-23T14:23:59.764Z,1.68
2024-02-23T14:26:28.997Z,2.53
2024-02-23T14:28:56.087Z,2.20
2024-02-23T14:31:23.155Z,4.13
2024-02-23T14:33:51.370Z,2.24
2024-02-23T14:36:18.396Z,1.67
2024-02-23T14:38:47.951Z,1.57
2024-02-23T14:41:14.906Z,1.53
2024-02-23T14:43:41.937Z,1.31
2024-02-23T14:46:08.886Z,1.53
2024-02-23T14:48:35.985Z,1.88
2024-02-23T14:51:03.182Z,1.65
2024-02-23T14:53:30.241Z,1.35
2024-02-23T14:55:59.916Z,1.44
2024-02-23T14:58:26.887Z,1.29
2024-02-23T15:00:53.941Z,1.33
2024-02-23T15:03:20.950Z,1.63
2024-02-23T15:05:48.057Z,2.53
2024-02-23T15:08:15.122Z,4.18
2024-02-23T15:10:42.390Z,2.68
2024-02-23T15:13:12.155Z,1.97
2024-02-23T15:15:41.324Z,1.61
2024-02-23T15:18:08.649Z,1.57
2024-02-23T15:20:36.376Z,1.33
2024-02-23T15:23:03.492Z,1.93
2024-02-23T15:25:30.645Z,4.58
2024-02-23T15:27:59.929Z,3.26
2024-02-23T15:30:29.463Z,1.67
2024-02-23T15:32:57.044Z,1.58
2024-02-23T15:35:24.041Z,2.74
2024-02-23T15:37:52.147Z,4.25
2024-02-23T15:40:19.029Z,3.22
2024-02-23T15:42:46.049Z,2.17
2024-02-23T15:45:13.045Z,1.64
2024-02-23T15:47:42.704Z,1.50
2024-02-23T15:50:28.845Z,1.33
2024-02-23T15:52:57.609Z,1.82
2024-02-23T15:55:24.743Z,1.87
2024-02-23T15:57:51.773Z,1.73
2024-02-23T16:00:20.140Z,1.52
2024-02-23T16:02:50.299Z,1.48
2024-02-23T16:05:17.315Z,1.36
2024-02-23T16:07:44.604Z,1.45
2024-02-23T16:10:11.693Z,1.97
2024-02-23T16:12:38.804Z,1.70
2024-02-23T16:15:07.675Z,1.43
2024-02-23T16:17:36.403Z,1.70
2024-02-23T16:20:07.787Z,2.25
2024-02-23T16:22:35.142Z,2.80
2024-02-23T16:25:02.143Z,5.72
2024-02-23T16:27:29.255Z,3.05
2024-02-23T16:29:56.218Z,2.30
2024-02-23T16:32:25.705Z,1.93
2024-02-23T16:34:52.769Z,2.31
2024-02-23T16:37:22.442Z,6.15
2024-02-23T16:39:49.967Z,4.30
2024-02-23T16:42:17.255Z,1.84
2024-02-23T16:44:45.156Z,1.26
2024-02-23T16:47:12.314Z,1.38
2024-02-23T16:49:39.279Z,1.43
2024-02-23T16:52:07.054Z,1.75
2024-02-23T16:54:36.681Z,1.88
2024-02-23T16:57:03.848Z,2.72
2024-02-23T16:59:31.018Z,1.86
2024-02-23T17:01:59.317Z,2.84
2024-02-23T17:04:26.688Z,3.31
2024-02-23T17:06:53.632Z,2.84
2024-02-23T17:09:20.686Z,3.15
2024-02-23T17:11:50.707Z,2.86
2024-02-23T17:14:19.467Z,2.47
2024-02-23T17:16:46.421Z,2.28
2024-02-23T17:19:13.746Z,2.12
2024-02-23T17:21:40.747Z,2.50
2024-02-23T17:24:07.939Z,2.43
2024-02-23T17:26:34.966Z,2.47
2024-02-23T17:29:07.679Z,2.28
2024-02-23T17:31:34.566Z,2.38
2024-02-23T17:34:01.631Z,2.31
2024-02-23T17:36:28.601Z,2.09
2024-02-23T17:38:59.798Z,3.00
2024-02-23T17:41:26.869Z,2.45
2024-02-23T17:43:54.074Z,2.23
2024-02-23T17:46:23.753Z,2.35
2024-02-23T17:48:50.916Z,2.43
2024-02-23T17:51:17.892Z,2.44
2024-02-23T17:53:48.476Z,2.12
2024-02-23T17:56:15.433Z,3.05
2024-02-23T17:58:42.385Z,2.90
2024-02-23T18:01:09.388Z,3.35
2024-02-23T18:03:39.132Z,3.95
2024-02-23T18:06:06.337Z,3.83
2024-02-23T18:08:33.411Z,3.83
2024-02-23T18:11:01.545Z,3.47
2024-02-23T18:13:29.949Z,3.88
2024-02-23T18:15:56.983Z,3.76
2024-02-23T18:18:24.118Z,3.82
2024-02-23T18:20:53.708Z,3.39
2024-02-23T18:23:20.832Z,3.65
2024-02-23T18:25:47.825Z,3.53
2024-02-23T18:28:14.852Z,3.47
2024-02-23T18:30:41.745Z,3.40
2024-02-23T18:33:09.524Z,2.96
2024-02-23T18:35:36.651Z,3.09
2024-02-23T18:38:06.277Z,3.02
2024-02-23T18:40:33.200Z,3.09
2024-02-23T18:43:00.172Z,3.81
2024-02-23T18:45:29.573Z,3.50
2024-02-23T18:47:56.730Z,3.74
2024-02-23T18:50:26.775Z,4.06
2024-02-23T18:52:53.789Z,4.54
2024-02-23T18:55:23.408Z,4.61
2024-02-23T18:57:50.410Z,4.16
2024-02-23T19:00:17.951Z,4.55
2024-02-23T19:02:47.375Z,4.63
2024-02-23T19:05:14.920Z,4.34
2024-02-23T19:07:42.014Z,4.07
2024-02-23T19:10:09.674Z,4.18
2024-02-23T19:12:39.505Z,3.65
2024-02-23T19:15:07.893Z,4.02
2024-02-23T19:17:34.921Z,3.59
2024-02-23T19:20:02.136Z,2.95
2024-02-23T19:22:29.191Z,2.83
2024-02-23T19:24:56.106Z,2.64
2024-02-23T19:27:23.056Z,2.99
2024-02-23T19:29:52.559Z,2.81
2024-02-23T19:32:19.517Z,2.71
2024-02-23T19:34:48.701Z,2.56
2024-02-23T19:37:15.754Z,2.59
2024-02-23T19:39:42.953Z,2.37
2024-02-23T19:42:10.046Z,2.53
2024-02-23T19:44:37.099Z,2.44
2024-02-23T19:47:07.654Z,2.54
2024-02-23T19:49:35.448Z,2.22
2024-02-23T19:52:02.602Z,2.23
2024-02-23T19:54:29.508Z,2.21
2024-02-23T19:56:56.485Z,2.47
2024-02-23T19:59:26.447Z,2.21
2024-02-23T20:01:53.387Z,2.28
2024-02-23T20:04:25.212Z,2.69
2024-02-23T20:06:52.195Z,3.53
2024-02-23T20:09:19.310Z,3.73
2024-02-23T20:11:46.281Z,3.87
2024-02-23T20:14:13.357Z,3.66
2024-02-23T20:16:40.457Z,3.71
2024-02-23T20:19:07.515Z,3.84
2024-02-23T20:21:40.235Z,3.90
2024-02-23T20:24:08.023Z,3.84
2024-02-23T20:26:34.987Z,3.63
2024-02-23T20:29:02.033Z,3.98
2024-02-23T20:31:28.946Z,3.78
2024-02-23T20:33:56.438Z,3.87
2024-02-23T20:36:23.561Z,3.58
2024-02-23T20:38:53.150Z,3.86
2024-02-23T20:41:20.228Z,3.86
2024-02-23T20:43:47.323Z,3.95
2024-02-23T20:46:14.322Z,4.04
2024-02-23T20:48:41.383Z,4.22
2024-02-23T20:51:08.397Z,4.23
2024-02-23T20:53:35.477Z,4.55
2024-02-23T20:56:06.457Z,4.54
2024-02-23T20:58:33.486Z,4.75
2024-02-23T21:01:03.258Z,4.73
2024-02-23T21:03:30.590Z,4.74
2024-02-23T21:05:57.617Z,4.38
2024-02-23T21:08:24.646Z,4.69
2024-02-23T21:10:51.694Z,4.25
2024-02-23T21:13:21.326Z,4.24
2024-02-23T21:15:50.377Z,4.34
2024-02-23T21:18:17.708Z,4.13
2024-02-23T21:20:45.504Z,3.99
2024-02-23T21:23:12.849Z,4.10
2024-02-23T21:25:39.942Z,4.32
2024-02-23T21:28:07.628Z,3.94
2024-02-23T21:30:37.300Z,4.31
2024-02-23T21:33:07.070Z,3.67
2024-02-23T21:35:34.215Z,3.33
2024-02-23T21:38:01.223Z,3.52
2024-02-23T21:40:28.236Z,3.77
2024-02-23T21:42:57.067Z,3.66
2024-02-23T21:45:24.032Z,3.75
2024-02-23T21:47:57.479Z,3.69
2024-02-23T21:50:24.575Z,3.26
2024-02-23T21:52:53.374Z,3.32
2024-02-23T21:55:20.580Z,3.43
2024-02-23T21:57:47.543Z,3.34
2024-02-23T22:00:15.251Z,3.67
2024-02-23T22:02:42.572Z,3.59
2024-02-23T22:05:12.512Z,3.80
2024-02-23T22:07:39.525Z,3.83
2024-02-23T22:10:07.954Z,3.40
2024-02-23T22:12:35.150Z,3.47
2024-02-23T22:15:03.338Z,3.81
2024-02-23T22:17:30.391Z,3.28
2024-02-23T22:19:57.656Z,3.06
2024-02-23T22:22:28.056Z,3.35
2024-02-23T22:24:54.975Z,2.28
2024-02-23T22:27:21.934Z,1.98
2024-02-23T22:29:48.949Z,1.98
2024-02-23T22:32:15.866Z,2.01
2024-02-23T22:34:43.006Z,1.90
2024-02-23T22:37:09.958Z,1.94
2024-02-23T22:39:39.450Z,1.94
2024-02-23T22:42:06.541Z,2.01
2024-02-23T22:44:33.788Z,2.25
2024-02-23T22:47:00.979Z,2.56
2024-02-23T22:49:28.148Z,2.60
2024-02-23T22:51:55.240Z,2.42
2024-02-23T22:54:22.236Z,2.56
2024-02-23T22:56:51.832Z,2.32
2024-02-23T22:59:18.842Z,2.33
2024-02-23T23:01:45.912Z,2.92
2024-02-23T23:04:12.963Z,2.72
2024-02-23T23:06:42.463Z,2.19
2024-02-23T23:09:09.614Z,2.24
2024-02-23T23:11:36.765Z,2.00
2024-02-23T23:14:07.321Z,1.97
2024-02-23T23:16:34.352Z,2.05
2024-02-23T23:19:01.489Z,2.05
2024-02-23T23:21:28.909Z,2.09
2024-02-23T23:23:55.897Z,1.92
2024-02-23T23:26:22.962Z,2.06
2024-02-23T23:28:50.022Z,1.92
2024-02-23T23:31:20.063Z,1.79
2024-02-23T23:33:47.090Z,1.79
2024-02-23T23:36:15.383Z,1.85
2024-02-23T23:38:43.488Z,1.80
2024-02-23T23:41:12.039Z,1.62
2024-02-23T23:43:40.047Z,1.68
2024-02-23T23:46:07.106Z,1.17
2024-02-23T23:48:37.245Z,1.21
2024-02-23T23:51:04.896Z,1.19
2024-02-23T23:53:32.190Z,1.00
2024-02-23T23:55:59.503Z,1.07
2024-02-23T23:58:26.485Z,0.97
